Terminal Aerodrome Forecast
Issued by NWS

Home | Current Version | Previous Version | Text Only | Print | Product List | Glossary On
Versions: 1 2 3 4 5 6 7 8 9 10 11 12 13 14 15 16 17 18 19
000
FTUS42 KTBW 281100
TAFRSW
TAF
KRSW 281131Z 2812/0112 06008KT P6SM VCSH BKN006 OVC015
     FM281500 08011KT P6SM SHRA BKN020 OVC040
     FM281800 09009KT P6SM VCSH BKN040
     FM010200 06006KT P6SM BKN030
     FM010600 06005KT 3SM BR BKN012=

USA.gov is the U.S. government's official web portal to all federal, state and local government web resources and services.